createdAt,value
2022-08-19T00:01:54.185Z,99.90
2022-08-19T00:04:27.311Z,99.90
2022-08-19T00:06:54.664Z,99.90
2022-08-19T00:09:23.809Z,99.90
2022-08-19T00:11:52.887Z,99.90
2022-08-19T00:14:21.528Z,99.90
2022-08-19T00:16:49.888Z,99.90
2022-08-19T00:19:17.944Z,99.90
2022-08-19T00:21:45.120Z,99.90
2022-08-19T00:24:17.872Z,99.90
2022-08-19T00:26:46.573Z,99.90
2022-08-19T00:29:17.831Z,99.90
2022-08-19T00:31:46.330Z,99.90
2022-08-19T00:34:15.220Z,99.90
2022-08-19T00:36:43.193Z,99.90
2022-08-19T00:39:11.866Z,99.90
2022-08-19T00:41:39.407Z,99.90
2022-08-19T00:44:08.123Z,99.90
2022-08-19T00:46:37.643Z,99.90
2022-08-19T00:49:10.821Z,99.90
2022-08-19T00:51:38.163Z,99.90
2022-08-19T00:54:05.336Z,99.90
2022-08-19T00:56:32.875Z,99.90
2022-08-19T00:59:00.453Z,99.90
2022-08-19T01:01:27.536Z,99.90
2022-08-19T01:03:58.367Z,99.90
2022-08-19T01:06:28.692Z,99.90
2022-08-19T01:08:56.232Z,99.90
2022-08-19T01:11:23.358Z,99.90
2022-08-19T01:13:53.074Z,99.90
2022-08-19T01:16:22.482Z,99.90
2022-08-19T01:18:50.440Z,99.90
2022-08-19T01:21:43.184Z,99.90
2022-08-19T01:24:10.499Z,99.90
2022-08-19T01:26:43.955Z,99.90
2022-08-19T01:29:13.660Z,99.90
2022-08-19T01:31:41.938Z,99.90
2022-08-19T01:34:08.960Z,99.90
2022-08-19T01:36:39.911Z,99.90
2022-08-19T01:39:11.714Z,99.90
2022-08-19T01:41:38.832Z,99.90
2022-08-19T01:44:17.459Z,99.90
2022-08-19T01:46:45.795Z,99.90
2022-08-19T01:49:12.827Z,99.90
2022-08-19T01:51:40.538Z,99.90
2022-08-19T01:54:12.473Z,99.90
2022-08-19T01:56:39.670Z,99.90
2022-08-19T01:59:16.271Z,99.90
2022-08-19T02:01:43.544Z,99.90
2022-08-19T02:04:10.829Z,99.90
2022-08-19T02:06:39.099Z,99.90
2022-08-19T02:09:07.243Z,99.90
2022-08-19T02:11:37.104Z,99.90
2022-08-19T02:14:08.258Z,99.90
2022-08-19T02:16:36.834Z,99.90
2022-08-19T02:19:06.473Z,99.90
2022-08-19T02:21:34.244Z,99.90
2022-08-19T02:24:01.564Z,99.90
2022-08-19T02:26:28.758Z,99.90
2022-08-19T02:28:56.674Z,99.90
2022-08-19T02:31:26.176Z,99.90
2022-08-19T02:33:56.617Z,99.90
2022-08-19T02:36:25.624Z,99.90
2022-08-19T02:38:54.503Z,99.90
2022-08-19T02:41:27.031Z,99.90
2022-08-19T02:44:28.591Z,99.90
2022-08-19T02:46:44.386Z,99.90
2022-08-19T02:49:11.434Z,99.90
2022-08-19T02:51:42.418Z,99.90
2022-08-19T02:54:11.993Z,99.90
2022-08-19T02:56:41.324Z,99.90
2022-08-19T02:59:10.218Z,99.90
2022-08-19T03:01:41.556Z,99.90
2022-08-19T03:04:10.665Z,99.90
2022-08-19T03:06:42.369Z,99.90
2022-08-19T03:09:09.371Z,99.90
2022-08-19T03:11:36.548Z,99.90
2022-08-19T03:14:06.046Z,99.90
2022-08-19T03:16:44.156Z,99.90
2022-08-19T03:19:11.242Z,99.90
2022-08-19T03:21:38.190Z,99.90
2022-08-19T03:24:08.855Z,99.90
2022-08-19T03:26:40.456Z,99.90
2022-08-19T03:29:07.560Z,99.90
2022-08-19T03:31:44.563Z,99.90
2022-08-19T03:34:22.931Z,99.90
2022-08-19T03:36:51.940Z,99.90
2022-08-19T03:39:19.513Z,99.90
2022-08-19T03:42:32.547Z,99.90
2022-08-19T03:44:38.937Z,99.90
2022-08-19T03:47:06.472Z,99.90
2022-08-19T03:49:36.151Z,99.90
2022-08-19T03:52:08.540Z,99.90
2022-08-19T03:54:39.056Z,99.90
2022-08-19T03:57:06.476Z,99.90
2022-08-19T03:59:36.445Z,99.90
2022-08-19T04:02:10.028Z,99.90
2022-08-19T04:04:38.890Z,99.90
2022-08-19T04:07:06.313Z,99.90
2022-08-19T04:09:37.171Z,99.90
2022-08-19T04:12:06.522Z,99.90
2022-08-19T04:14:34.988Z,99.90
2022-08-19T04:17:06.438Z,99.90
2022-08-19T04:19:35.975Z,99.90
2022-08-19T04:22:04.349Z,99.90
2022-08-19T04:24:31.366Z,99.90
2022-08-19T04:27:00.056Z,99.90
2022-08-19T04:29:27.941Z,99.90
2022-08-19T04:31:56.790Z,99.90
2022-08-19T04:34:26.685Z,99.90
2022-08-19T04:36:55.266Z,99.90
2022-08-19T04:39:49.653Z,99.90
2022-08-19T04:42:37.553Z,99.90
2022-08-19T04:45:09.313Z,99.90
2022-08-19T04:47:48.038Z,99.90
2022-08-19T04:50:26.037Z,99.90
2022-08-19T04:52:55.632Z,99.90
2022-08-19T04:55:22.656Z,99.90
2022-08-19T04:57:49.879Z,99.90
2022-08-19T05:00:16.910Z,99.90
2022-08-19T05:02:43.947Z,99.90
2022-08-19T05:05:11.401Z,99.90
2022-08-19T05:07:38.394Z,99.90
2022-08-19T05:10:07.200Z,99.90
2022-08-19T05:12:34.679Z,99.90
2022-08-19T05:15:04.065Z,99.90
2022-08-19T05:17:34.871Z,99.90
2022-08-19T05:20:25.914Z,99.90
2022-08-19T05:22:53.488Z,99.90
2022-08-19T05:25:22.178Z,99.90
2022-08-19T05:27:49.748Z,99.90
2022-08-19T05:30:17.443Z,99.90
2022-08-19T05:32:44.682Z,99.90
2022-08-19T05:35:12.751Z,99.90
2022-08-19T05:37:41.413Z,99.90
2022-08-19T05:40:10.328Z,99.90
2022-08-19T05:42:38.336Z,99.90
2022-08-19T05:45:05.793Z,99.90
2022-08-19T05:47:33.243Z,99.90
2022-08-19T05:50:02.748Z,99.90
2022-08-19T05:52:33.561Z,99.90
2022-08-19T05:55:00.636Z,99.90
2022-08-19T05:57:29.784Z,99.90
2022-08-19T05:59:59.161Z,99.90
2022-08-19T06:02:32.001Z,99.90
2022-08-19T06:04:59.858Z,99.90
2022-08-19T06:07:27.147Z,99.90
2022-08-19T06:10:00.800Z,99.90
2022-08-19T06:12:35.890Z,99.90
2022-08-19T06:15:11.748Z,99.90
2022-08-19T06:17:39.127Z,99.90
2022-08-19T06:20:12.931Z,99.90
2022-08-19T06:22:45.435Z,99.90
2022-08-19T06:25:15.223Z,99.90
2022-08-19T06:28:11.341Z,99.90
2022-08-19T06:30:30.673Z,99.90
2022-08-19T06:32:58.917Z,99.90
2022-08-19T06:35:26.421Z,99.90
2022-08-19T06:37:53.636Z,99.90
2022-08-19T06:40:20.771Z,99.90
2022-08-19T06:42:54.971Z,99.90
2022-08-19T06:45:24.843Z,99.90
2022-08-19T06:48:00.963Z,99.90
2022-08-19T06:50:28.643Z,99.90
2022-08-19T06:52:55.729Z,99.90
2022-08-19T06:55:23.374Z,99.90
2022-08-19T06:57:54.533Z,99.90
2022-08-19T07:00:22.029Z,99.90
2022-08-19T07:02:55.785Z,99.90
2022-08-19T07:05:26.517Z,99.90
2022-08-19T07:07:53.913Z,99.90
2022-08-19T07:10:24.855Z,99.90
2022-08-19T07:12:53.039Z,99.90
2022-08-19T07:15:22.920Z,99.90
2022-08-19T07:17:52.623Z,99.90
2022-08-19T07:20:22.857Z,99.90
2022-08-19T07:22:56.051Z,99.90
2022-08-19T07:25:32.082Z,99.90
2022-08-19T07:28:01.370Z,99.90
2022-08-19T07:30:30.380Z,99.90
2022-08-19T07:32:58.604Z,99.90
2022-08-19T07:35:26.117Z,99.90
2022-08-19T07:37:53.949Z,99.90
2022-08-19T07:40:21.261Z,99.90
2022-08-19T07:42:48.320Z,99.90
2022-08-19T07:45:16.969Z,99.90
2022-08-19T07:47:50.463Z,99.90
2022-08-19T07:50:20.402Z,99.90
2022-08-19T07:52:48.869Z,99.90
2022-08-19T07:55:41.655Z,99.90
2022-08-19T07:58:06.702Z,99.90
2022-08-19T08:00:34.822Z,99.90
2022-08-19T08:03:01.991Z,99.90
2022-08-19T08:05:48.121Z,99.90
2022-08-19T08:08:33.994Z,99.90
2022-08-19T08:11:01.584Z,99.90
2022-08-19T08:13:29.164Z,99.90
2022-08-19T08:15:57.733Z,99.90
2022-08-19T08:18:27.467Z,99.90
2022-08-19T08:20:59.319Z,99.90
2022-08-19T08:23:26.987Z,99.90
2022-08-19T08:25:57.685Z,99.90
2022-08-19T08:28:26.290Z,99.90
2022-08-19T08:30:58.409Z,99.90
2022-08-19T08:33:32.688Z,99.90
2022-08-19T08:36:08.666Z,99.90
2022-08-19T08:38:39.839Z,99.90
2022-08-19T08:41:46.926Z,99.90
2022-08-19T08:44:37.912Z,99.90
2022-08-19T08:47:13.526Z,99.90
2022-08-19T08:49:51.330Z,99.90
2022-08-19T08:52:32.193Z,99.90
2022-08-19T08:55:10.263Z,99.90
2022-08-19T08:57:49.920Z,99.90
2022-08-19T09:00:21.995Z,99.90
2022-08-19T09:02:50.703Z,99.90
2022-08-19T09:05:22.603Z,99.90
2022-08-19T09:08:13.668Z,99.90
2022-08-19T09:10:47.339Z,99.90
2022-08-19T09:13:37.495Z,99.90
2022-08-19T09:16:28.628Z,99.90
2022-08-19T09:19:06.373Z,99.90
2022-08-19T09:21:35.619Z,99.90
2022-08-19T09:24:05.447Z,99.90
2022-08-19T09:26:48.351Z,99.90
2022-08-19T09:29:22.696Z,99.90
2022-08-19T09:31:50.983Z,99.90
2022-08-19T09:34:22.060Z,99.90
2022-08-19T09:36:56.504Z,99.90
2022-08-19T09:39:23.673Z,99.90
2022-08-19T09:41:53.984Z,99.90
2022-08-19T09:44:21.868Z,99.90
2022-08-19T09:46:49.334Z,99.90
2022-08-19T09:49:18.585Z,99.90
2022-08-19T09:51:51.305Z,99.90
2022-08-19T09:54:23.776Z,99.90
2022-08-19T09:56:53.497Z,99.90
2022-08-19T09:59:20.706Z,99.90
2022-08-19T10:01:48.101Z,99.90
2022-08-19T10:04:20.617Z,99.40
2022-08-19T10:06:51.790Z,98.80
2022-08-19T10:09:33.742Z,98.30
2022-08-19T10:12:03.034Z,97.80
2022-08-19T10:14:30.903Z,96.30
2022-08-19T10:16:59.248Z,94.70
2022-08-19T10:19:27.035Z,93.60
2022-08-19T10:21:58.574Z,92.50
2022-08-19T10:24:29.093Z,93.50
2022-08-19T10:26:59.071Z,89.70
2022-08-19T10:29:33.072Z,88.70
2022-08-19T10:32:09.778Z,89.40
2022-08-19T10:34:48.672Z,87.90
2022-08-19T10:37:23.763Z,89.40
2022-08-19T10:39:51.816Z,88.70
2022-08-19T10:42:19.823Z,87.10
2022-08-19T10:44:47.771Z,89.30
2022-08-19T10:47:24.383Z,85.10
2022-08-19T10:50:13.599Z,85.20
2022-08-19T10:52:50.134Z,85.20
2022-08-19T10:55:39.213Z,85.20
2022-08-19T10:58:12.624Z,85.70
2022-08-19T11:00:39.685Z,86.50
2022-08-19T11:03:07.561Z,86.00
2022-08-19T11:05:39.804Z,86.70
2022-08-19T11:08:23.464Z,86.80
2022-08-19T11:11:01.537Z,86.10
2022-08-19T11:13:30.396Z,86.10
2022-08-19T11:16:07.348Z,85.50
2022-08-19T11:18:37.717Z,86.30
2022-08-19T11:21:12.281Z,86.60
2022-08-19T11:23:39.607Z,86.20
2022-08-19T11:26:07.205Z,87.20
2022-08-19T11:28:34.297Z,87.50
2022-08-19T11:31:01.149Z,86.50
2022-08-19T11:33:28.213Z,86.90
2022-08-19T11:35:55.317Z,89.80
2022-08-19T11:38:22.427Z,91.20
2022-08-19T11:41:00.556Z,92.10
2022-08-19T11:43:37.316Z,96.80
2022-08-19T11:46:10.868Z,98.00
2022-08-19T11:48:39.008Z,99.80
2022-08-19T11:51:14.723Z,99.90
2022-08-19T11:53:42.970Z,99.90
2022-08-19T11:56:13.217Z,99.90
2022-08-19T11:58:43.487Z,99.90
2022-08-19T12:01:17.124Z,99.90
2022-08-19T12:03:48.020Z,99.90
2022-08-19T12:06:17.799Z,99.90
2022-08-19T12:08:46.703Z,99.90
2022-08-19T12:11:14.721Z,99.90
2022-08-19T12:13:45.974Z,99.90
2022-08-19T12:16:16.374Z,99.90
2022-08-19T12:18:47.490Z,99.90
2022-08-19T12:21:18.753Z,99.90
2022-08-19T12:23:53.823Z,99.90
2022-08-19T12:26:23.038Z,99.90
2022-08-19T12:28:50.074Z,99.90
2022-08-19T12:31:18.249Z,99.90
2022-08-19T12:33:47.573Z,99.90
2022-08-19T12:36:16.521Z,99.90
2022-08-19T12:38:45.088Z,99.90
2022-08-19T12:41:14.927Z,99.90
2022-08-19T12:43:43.075Z,99.90
2022-08-19T12:46:13.589Z,99.90
2022-08-19T12:48:46.501Z,99.90
2022-08-19T12:51:17.939Z,99.90
2022-08-19T12:53:45.082Z,99.90
2022-08-19T12:56:15.293Z,99.90
2022-08-19T12:58:48.642Z,99.90
2022-08-19T13:01:22.973Z,99.90
2022-08-19T13:03:53.428Z,99.90
2022-08-19T13:06:20.632Z,99.90
2022-08-19T13:08:47.892Z,99.90
2022-08-19T13:11:18.380Z,99.90
2022-08-19T13:13:51.379Z,99.90
2022-08-19T13:16:19.449Z,99.90
2022-08-19T13:18:48.467Z,99.90
2022-08-19T13:21:15.953Z,99.90
2022-08-19T13:23:46.034Z,99.00
2022-08-19T13:26:14.489Z,99.90
2022-08-19T13:29:00.421Z,99.50
2022-08-19T13:31:48.502Z,99.90
2022-08-19T13:34:16.608Z,99.90
2022-08-19T13:36:44.990Z,99.90
2022-08-19T13:39:12.072Z,99.90
2022-08-19T13:41:48.866Z,99.90
2022-08-19T13:44:19.245Z,99.90
2022-08-19T13:46:48.156Z,99.90
2022-08-19T13:49:16.206Z,99.90
2022-08-19T13:51:44.585Z,99.90
2022-08-19T13:54:12.763Z,99.90
2022-08-19T13:56:46.228Z,99.90
2022-08-19T13:59:13.758Z,99.90
2022-08-19T14:01:40.881Z,99.90
2022-08-19T14:04:08.930Z,99.90
2022-08-19T14:06:36.397Z,99.70
2022-08-19T14:09:03.710Z,99.90
2022-08-19T14:11:31.131Z,99.90
2022-08-19T14:13:58.423Z,99.90
2022-08-19T14:16:25.635Z,99.90
2022-08-19T14:18:53.884Z,99.90
2022-08-19T14:21:24.770Z,99.90
2022-08-19T14:23:52.293Z,99.90
2022-08-19T14:26:21.734Z,99.90
2022-08-19T14:28:51.451Z,99.90
2022-08-19T14:31:26.799Z,99.90
2022-08-19T14:33:57.294Z,99.90
2022-08-19T14:36:24.284Z,99.90
2022-08-19T14:38:54.482Z,99.90
2022-08-19T14:41:23.350Z,99.90
2022-08-19T14:43:53.265Z,99.90
2022-08-19T14:46:29.757Z,99.90
2022-08-19T14:49:00.070Z,99.90
2022-08-19T14:51:27.744Z,99.90
2022-08-19T14:53:55.128Z,99.90
2022-08-19T14:56:26.361Z,99.90
2022-08-19T14:59:00.246Z,99.90
2022-08-19T15:01:28.084Z,99.90
2022-08-19T15:03:55.670Z,99.90
2022-08-19T15:06:27.361Z,99.90
2022-08-19T15:08:55.422Z,99.90
2022-08-19T15:11:28.702Z,99.90
2022-08-19T15:13:59.315Z,99.90
2022-08-19T15:16:28.137Z,99.90
2022-08-19T15:18:57.822Z,99.90
2022-08-19T15:21:27.381Z,99.90
2022-08-19T15:23:57.159Z,99.90
2022-08-19T15:26:25.714Z,99.90
2022-08-19T15:28:53.164Z,99.90
2022-08-19T15:31:28.475Z,99.90
2022-08-19T15:33:58.813Z,99.90
2022-08-19T15:36:27.597Z,99.90
2022-08-19T15:38:56.583Z,99.90
2022-08-19T15:41:27.969Z,99.90
2022-08-19T15:43:59.907Z,99.90
2022-08-19T15:46:31.022Z,99.90
2022-08-19T15:49:00.154Z,99.90
2022-08-19T15:51:30.298Z,99.90
2022-08-19T15:53:59.012Z,99.90
2022-08-19T15:56:27.577Z,99.90
2022-08-19T15:59:13.346Z,99.90
2022-08-19T16:01:59.413Z,99.90
2022-08-19T16:04:45.082Z,99.90
2022-08-19T16:07:12.824Z,99.90
2022-08-19T16:09:40.040Z,99.90
2022-08-19T16:12:08.612Z,99.90
2022-08-19T16:14:38.108Z,99.90
2022-08-19T16:17:05.555Z,99.90
2022-08-19T16:19:33.394Z,99.90
2022-08-19T16:22:00.461Z,99.90
2022-08-19T16:24:28.631Z,99.90
2022-08-19T16:27:00.917Z,99.90
2022-08-19T16:29:34.414Z,99.90
2022-08-19T16:32:12.337Z,99.90
2022-08-19T16:34:41.695Z,99.90
2022-08-19T16:37:10.260Z,99.90
2022-08-19T16:39:37.780Z,99.90
2022-08-19T16:42:07.853Z,99.90
2022-08-19T16:44:36.768Z,99.90
2022-08-19T16:47:12.684Z,99.90
2022-08-19T16:49:54.329Z,99.90
2022-08-19T16:52:27.072Z,99.90
2022-08-19T16:54:54.900Z,99.90
2022-08-19T16:57:23.848Z,99.90
2022-08-19T16:59:52.379Z,99.90
2022-08-19T17:02:22.651Z,99.90
2022-08-19T17:04:58.402Z,99.90
2022-08-19T17:07:33.089Z,99.90
2022-08-19T17:10:02.717Z,99.90
2022-08-19T17:12:32.125Z,99.90
2022-08-19T17:15:01.626Z,99.90
2022-08-19T17:17:31.197Z,99.90
2022-08-19T17:20:00.298Z,99.90
2022-08-19T17:22:27.881Z,99.90
2022-08-19T17:24:56.253Z,99.90
2022-08-19T17:27:26.487Z,99.90
2022-08-19T17:29:53.623Z,99.90
2022-08-19T17:32:24.971Z,99.90
2022-08-19T17:34:56.786Z,99.90
2022-08-19T17:37:25.097Z,99.90
2022-08-19T17:39:53.630Z,99.90
2022-08-19T17:42:20.980Z,99.90
2022-08-19T17:44:50.416Z,99.90
2022-08-19T17:47:19.434Z,99.90
2022-08-19T17:49:49.521Z,99.90
2022-08-19T17:52:18.828Z,99.90
2022-08-19T17:54:46.832Z,99.90
2022-08-19T17:57:14.227Z,99.90
2022-08-19T17:59:41.198Z,99.90
2022-08-19T18:02:11.154Z,99.90
2022-08-19T18:04:39.612Z,99.90
2022-08-19T18:07:16.602Z,99.90
2022-08-19T18:09:49.450Z,99.90
2022-08-19T18:12:18.055Z,99.90
2022-08-19T18:14:45.085Z,99.90
2022-08-19T18:17:17.389Z,99.90
2022-08-19T18:19:49.966Z,99.90
2022-08-19T18:22:27.894Z,99.90
2022-08-19T18:24:59.211Z,99.90
2022-08-19T18:27:27.715Z,99.90
2022-08-19T18:29:59.922Z,99.90
2022-08-19T18:32:38.979Z,99.90
2022-08-19T18:35:16.587Z,99.90
2022-08-19T18:37:45.263Z,99.90
2022-08-19T18:40:38.212Z,99.90
2022-08-19T18:43:12.436Z,99.90
2022-08-19T18:46:01.811Z,99.90
2022-08-19T18:48:47.964Z,99.90
2022-08-19T18:51:16.736Z,99.90
2022-08-19T18:53:46.380Z,99.90
2022-08-19T18:56:15.938Z,99.90
2022-08-19T18:58:43.651Z,99.90
2022-08-19T19:01:17.898Z,99.90
2022-08-19T19:03:53.693Z,99.90
2022-08-19T19:06:30.963Z,99.90
2022-08-19T19:08:59.401Z,99.90
2022-08-19T19:11:33.924Z,99.90
2022-08-19T19:14:02.726Z,99.90
2022-08-19T19:16:31.111Z,99.90
2022-08-19T19:18:59.188Z,99.90
2022-08-19T19:21:34.674Z,99.90
2022-08-19T19:24:04.946Z,99.90
2022-08-19T19:26:33.131Z,99.90
2022-08-19T19:29:00.231Z,99.90
2022-08-19T19:31:27.446Z,99.90
2022-08-19T19:33:57.012Z,99.90
2022-08-19T19:36:25.951Z,99.90
2022-08-19T19:39:01.420Z,99.90
2022-08-19T19:41:30.484Z,99.90
2022-08-19T19:44:30.133Z,99.90
2022-08-19T19:46:50.261Z,99.90
2022-08-19T19:49:19.637Z,99.90
2022-08-19T19:51:46.722Z,99.90
2022-08-19T19:54:15.746Z,99.90
2022-08-19T19:56:45.075Z,99.90
2022-08-19T19:59:12.506Z,99.90
2022-08-19T20:01:47.396Z,99.90
2022-08-19T20:04:15.787Z,99.90
2022-08-19T20:06:47.042Z,99.90
2022-08-19T20:09:19.703Z,99.90
2022-08-19T20:11:55.507Z,99.90
2022-08-19T20:14:29.326Z,99.90
2022-08-19T20:16:59.349Z,99.90
2022-08-19T20:19:34.347Z,99.90
2022-08-19T20:22:01.718Z,99.90
2022-08-19T20:24:38.686Z,99.90
2022-08-19T20:27:07.295Z,99.90
2022-08-19T20:29:39.448Z,99.90
2022-08-19T20:32:12.556Z,99.90
2022-08-19T20:34:41.169Z,99.90
2022-08-19T20:37:11.322Z,99.90
2022-08-19T20:39:38.664Z,99.90
2022-08-19T20:42:06.012Z,99.90
2022-08-19T20:44:33.112Z,99.90
2022-08-19T20:47:03.843Z,99.90
2022-08-19T20:49:32.694Z,99.90
2022-08-19T20:52:00.377Z,99.90
2022-08-19T20:54:28.060Z,99.90
2022-08-19T20:56:55.398Z,99.90
2022-08-19T20:59:27.158Z,99.90
2022-08-19T21:01:54.525Z,99.90
2022-08-19T21:04:24.853Z,99.90
2022-08-19T21:06:52.095Z,99.90
2022-08-19T21:09:19.475Z,99.90
2022-08-19T21:11:47.212Z,99.90
2022-08-19T21:14:14.442Z,99.90
2022-08-19T21:16:41.694Z,99.90
2022-08-19T21:19:10.783Z,99.90
2022-08-19T21:21:43.379Z,99.90
2022-08-19T21:24:45.971Z,99.90
2022-08-19T21:27:13.345Z,99.90
2022-08-19T21:29:42.129Z,99.90
2022-08-19T21:32:14.192Z,99.90
2022-08-19T21:34:45.446Z,99.90
2022-08-19T21:37:24.793Z,99.90
2022-08-19T21:39:54.545Z,99.90
2022-08-19T21:42:23.446Z,99.90
2022-08-19T21:44:51.158Z,99.90
2022-08-19T21:47:18.453Z,99.90
2022-08-19T21:49:45.485Z,99.90
2022-08-19T21:52:24.796Z,99.90
2022-08-19T21:54:52.960Z,99.90
2022-08-19T21:57:32.188Z,99.90
2022-08-19T21:59:59.237Z,99.90
2022-08-19T22:02:27.495Z,99.90
2022-08-19T22:04:58.258Z,99.90
2022-08-19T22:07:25.537Z,99.90
2022-08-19T22:09:53.165Z,99.90
2022-08-19T22:12:25.867Z,99.90
2022-08-19T22:14:54.094Z,99.90
2022-08-19T22:17:28.747Z,99.90
2022-08-19T22:19:58.268Z,99.90
2022-08-19T22:22:29.519Z,99.90
2022-08-19T22:25:12.489Z,99.90
2022-08-19T22:27:40.048Z,99.90
2022-08-19T22:30:14.864Z,99.90
2022-08-19T22:32:56.021Z,99.90
2022-08-19T22:35:25.601Z,99.90
2022-08-19T22:37:52.761Z,99.90
2022-08-19T22:40:20.351Z,99.90
2022-08-19T22:42:48.890Z,99.90
2022-08-19T22:45:18.298Z,99.90
2022-08-19T22:47:45.543Z,99.90
2022-08-19T22:50:13.851Z,99.90
2022-08-19T22:52:51.625Z,99.90
2022-08-19T22:55:27.897Z,99.90
2022-08-19T22:57:55.299Z,99.90
2022-08-19T23:00:23.966Z,99.90
2022-08-19T23:02:51.686Z,99.90
2022-08-19T23:05:25.015Z,99.90
2022-08-19T23:07:53.073Z,99.90
2022-08-19T23:10:27.209Z,99.90
2022-08-19T23:12:59.278Z,99.90
2022-08-19T23:15:31.858Z,99.90
2022-08-19T23:18:01.949Z,99.90
2022-08-19T23:20:32.888Z,99.90
2022-08-19T23:23:04.282Z,99.90
2022-08-19T23:25:34.191Z,99.90
2022-08-19T23:28:20.949Z,99.90
2022-08-19T23:30:49.284Z,99.90
2022-08-19T23:33:46.702Z,99.90
2022-08-19T23:36:17.683Z,99.90
2022-08-19T23:38:47.328Z,99.90
2022-08-19T23:41:16.127Z,99.90
2022-08-19T23:43:44.577Z,99.90
2022-08-19T23:46:27.732Z,99.90
2022-08-19T23:48:55.909Z,99.90
2022-08-19T23:51:23.310Z,99.90
2022-08-19T23:53:50.306Z,99.90
2022-08-19T23:56:17.647Z,99.90
2022-08-19T23:58:45.575Z,99.90
